Time;durP1;ratioP1;P1;durP2;ratioP2;P2;SDS_P1;SDS_P2;PMS_P1;PMS_P2;Temp;Humidity;BMP_temperature;BMP_pressure;BME280_temperature;BME280_humidity;BME280_pressure;Samples;Min_cycle;Max_cycle;Signal;HPM_P1;HPM_P2
2021/08/24 00:00:26;;;;;;;;;;;20.80;68.10;;;;;;5026278;28;19941;-64
2021/08/24 00:02:51;;;;;;;;;;;20.80;68.20;;;;;;5025923;28;19913;-66
2021/08/24 00:05:18;;;;;;;;;;;20.80;68.20;;;;;;5026285;28;19909;-65
2021/08/24 00:07:44;;;;;;;;;;;20.80;68.20;;;;;;5025626;28;20396;-66
2021/08/24 00:10:10;;;;;;;;;;;20.80;68.20;;;;;;5025960;28;20028;-64
2021/08/24 00:12:35;;;;;;;;;;;20.80;68.20;;;;;;5026013;28;20265;-65
2021/08/24 00:15:01;;;;;;;;;;;20.80;68.20;;;;;;5025973;28;19913;-65
2021/08/24 00:17:26;;;;;;;;;;;20.80;68.20;;;;;;5024369;28;19909;-66
2021/08/24 00:19:51;;;;;;;;;;;20.80;68.20;;;;;;5025604;28;20339;-65
2021/08/24 00:22:17;;;;;;;;;;;20.80;68.10;;;;;;5026078;28;20046;-66
2021/08/24 00:24:42;;;;;;;;;;;20.80;68.20;;;;;;5025881;28;20087;-66
2021/08/24 00:27:08;;;;;;;;;;;20.80;68.10;;;;;;5025817;28;19913;-65
2021/08/24 00:29:33;;;;;;;;;;;20.80;68.20;;;;;;5025437;28;20225;-64
2021/08/24 00:31:59;;;;;;;;;;;20.80;68.10;;;;;;5025595;28;19920;-66
2021/08/24 00:34:25;;;;;;;;;;;20.80;68.10;;;;;;5026007;28;19910;-66
2021/08/24 00:36:50;;;;;;;;;;;20.80;68.10;;;;;;5024148;28;19918;-66
2021/08/24 00:39:16;;;;;;;;;;;20.70;68.20;;;;;;5028072;28;19913;-65
2021/08/24 00:41:41;;;;;;;;;;;20.80;68.20;;;;;;5025220;28;19968;-66
2021/08/24 00:44:07;;;;;;;;;;;20.80;68.20;;;;;;5025769;28;19913;-66
2021/08/24 00:46:34;;;;;;;;;;;20.80;68.10;;;;;;5025550;28;19920;-65
2021/08/24 00:49:04;;;;;;;;;;;20.80;68.20;;;;;;5025581;28;19913;-66
2021/08/24 00:51:30;;;;;;;;;;;20.70;68.10;;;;;;5024213;28;20043;-66
2021/08/24 00:53:55;;;;;;;;;;;20.70;68.20;;;;;;5024001;28;20000;-66
2021/08/24 00:56:20;;;;;;;;;;;20.80;68.20;;;;;;5025316;28;19909;-66
2021/08/24 00:58:46;;;;;;;;;;;20.80;68.20;;;;;;5025311;28;20372;-66
2021/08/24 01:01:11;;;;;;;;;;;20.70;68.10;;;;;;5025620;28;19988;-66
2021/08/24 01:03:38;;;;;;;;;;;20.70;68.20;;;;;;5025677;28;19913;-65
2021/08/24 01:06:07;;;;;;;;;;;20.70;68.20;;;;;;5025001;28;19916;-66
2021/08/24 01:08:52;;;;;;;;;;;20.70;68.20;;;;;;5028774;28;19914;-65
2021/08/24 01:11:43;;;;;;;;;;;20.70;68.20;;;;;;5029630;28;19909;-66
2021/08/24 01:14:13;;;;;;;;;;;20.70;68.20;;;;;;5026913;28;19920;-62
2021/08/24 01:16:38;;;;;;;;;;;20.70;68.20;;;;;;5027563;28;20268;-65
2021/08/24 01:19:22;;;;;;;;;;;20.70;68.20;;;;;;5028563;28;19917;-66
2021/08/24 01:21:58;;;;;;;;;;;20.70;68.20;;;;;;5026135;28;19909;-64
2021/08/24 01:24:25;;;;;;;;;;;20.70;68.20;;;;;;5027818;28;19920;-65
2021/08/24 01:26:57;;;;;;;;;;;20.70;68.20;;;;;;5027599;28;19909;-65
2021/08/24 01:29:29;;;;;;;;;;;20.70;68.20;;;;;;5020599;28;20000;-65
2021/08/24 01:32:00;;;;;;;;;;;20.70;68.20;;;;;;5028774;28;19917;-62
2021/08/24 01:34:39;;;;;;;;;;;20.70;68.50;;;;;;5028951;28;20299;-64
2021/08/24 01:37:09;;;;;;;;;;;20.70;68.20;;;;;;5026526;28;20222;-64
2021/08/24 01:39:36;;;;;;;;;;;20.70;68.20;;;;;;5027326;28;20368;-65
2021/08/24 01:42:11;;;;;;;;;;;20.70;68.20;;;;;;5026782;28;19905;-64
2021/08/24 01:44:38;;;;;;;;;;;20.70;68.20;;;;;;5028764;28;19913;-62
2021/08/24 01:47:05;;;;;;;;;;;20.70;68.20;;;;;;5029228;28;20308;-60
2021/08/24 01:49:35;;;;;;;;;;;20.70;68.20;;;;;;5027809;28;19909;-61
2021/08/24 01:52:02;;;;;;;;;;;20.70;68.20;;;;;;5027006;28;19912;-66
2021/08/24 01:54:41;;;;;;;;;;;20.70;68.20;;;;;;5027601;28;20342;-64
2021/08/24 01:57:11;;;;;;;;;;;20.70;68.20;;;;;;5020930;28;20374;-65
2021/08/24 01:59:38;;;;;;;;;;;20.60;68.20;;;;;;5027243;28;20372;-64
2021/08/24 02:02:11;;;;;;;;;;;20.60;68.20;;;;;;5028412;28;20185;-66
2021/08/24 02:04:38;;;;;;;;;;;20.70;68.20;;;;;;5028966;28;20255;-65
2021/08/24 02:07:04;;;;;;;;;;;20.70;68.20;;;;;;5026410;28;20019;-64
2021/08/24 02:09:40;;;;;;;;;;;20.60;68.20;;;;;;5028330;28;20368;-66
2021/08/24 02:12:05;;;;;;;;;;;20.60;68.20;;;;;;5026486;28;19913;-66
2021/08/24 02:14:31;;;;;;;;;;;20.60;68.20;;;;;;5026982;28;19916;-65
2021/08/24 02:16:58;;;;;;;;;;;20.60;68.20;;;;;;5026068;28;19913;-65
2021/08/24 02:19:26;;;;;;;;;;;20.60;68.20;;;;;;5026370;28;19924;-65
2021/08/24 02:21:56;;;;;;;;;;;20.60;68.20;;;;;;5025884;28;20376;-65
2021/08/24 02:24:23;;;;;;;;;;;20.60;68.20;;;;;;5026879;28;19920;-65
2021/08/24 02:26:48;;;;;;;;;;;20.60;68.30;;;;;;5026082;28;19916;-66
2021/08/24 02:29:13;;;;;;;;;;;20.60;68.20;;;;;;5026276;28;19909;-65
2021/08/24 02:31:57;;;;;;;;;;;20.60;68.20;;;;;;5025916;28;19921;-66
2021/08/24 02:34:28;;;;;;;;;;;20.60;68.30;;;;;;5027010;28;19960;-61
2021/08/24 02:37:13;;;;;;;;;;;20.60;68.30;;;;;;5026001;28;19921;-61
2021/08/24 02:39:59;;;;;;;;;;;20.60;68.20;;;;;;5020653;28;19909;-63
2021/08/24 02:42:28;;;;;;;;;;;20.60;68.20;;;;;;5025976;28;19913;-66
2021/08/24 02:44:55;;;;;;;;;;;20.60;68.30;;;;;;5026318;28;20249;-66
2021/08/24 02:47:20;;;;;;;;;;;20.60;68.30;;;;;;5027682;28;19916;-65
2021/08/24 02:49:46;;;;;;;;;;;20.60;68.30;;;;;;5026120;28;20323;-65
2021/08/24 02:52:11;;;;;;;;;;;20.60;68.30;;;;;;5027572;28;19934;-66
2021/08/24 02:54:46;;;;;;;;;;;20.60;68.30;;;;;;5027567;28;20376;-65
2021/08/24 02:57:12;;;;;;;;;;;20.60;68.20;;;;;;5027362;28;20284;-66
2021/08/24 02:59:37;;;;;;;;;;;20.60;68.30;;;;;;5026405;28;20024;-65
2021/08/24 03:02:04;;;;;;;;;;;20.60;68.30;;;;;;5026901;28;19916;-65
2021/08/24 03:04:29;;;;;;;;;;;20.60;68.30;;;;;;5027286;28;19988;-64
2021/08/24 03:06:59;;;;;;;;;;;20.50;68.20;;;;;;5026206;28;19917;-65
2021/08/24 03:09:25;;;;;;;;;;;20.60;68.30;;;;;;5027106;28;19970;-64
2021/08/24 03:11:56;;;;;;;;;;;20.60;68.40;;;;;;5025649;28;20368;-64
2021/08/24 03:14:25;;;;;;;;;;;20.50;68.30;;;;;;5025849;28;19936;-65
2021/08/24 03:16:55;;;;;;;;;;;20.50;68.30;;;;;;5025063;28;20295;-64
2021/08/24 03:19:22;;;;;;;;;;;20.50;68.30;;;;;;5026871;28;19917;-64
2021/08/24 03:21:47;;;;;;;;;;;20.50;68.20;;;;;;5026778;28;19963;-64
2021/08/24 03:24:13;;;;;;;;;;;20.50;68.30;;;;;;5026238;28;20338;-65
2021/08/24 03:26:39;;;;;;;;;;;20.50;68.30;;;;;;5025393;28;19916;-66
2021/08/24 03:29:08;;;;;;;;;;;20.50;68.30;;;;;;5025513;28;19913;-65
2021/08/24 03:31:34;;;;;;;;;;;20.50;68.30;;;;;;5026666;28;19909;-65
2021/08/24 03:33:59;;;;;;;;;;;20.50;68.30;;;;;;5025092;28;19932;-65
2021/08/24 03:36:25;;;;;;;;;;;20.50;68.20;;;;;;5026350;28;19958;-65
2021/08/24 03:38:50;;;;;;;;;;;20.50;68.30;;;;;;5026739;28;20408;-64
2021/08/24 03:41:16;;;;;;;;;;;20.50;68.30;;;;;;5026356;28;19962;-65
2021/08/24 03:43:41;;;;;;;;;;;20.50;68.30;;;;;;5025947;28;19956;-65
2021/08/24 03:46:07;;;;;;;;;;;20.50;68.90;;;;;;5026140;28;20088;-66
2021/08/24 03:48:32;;;;;;;;;;;20.50;68.30;;;;;;5024961;28;19909;-65
2021/08/24 03:50:58;;;;;;;;;;;20.50;68.30;;;;;;5024800;28;19909;-65
2021/08/24 03:53:23;;;;;;;;;;;20.50;68.30;;;;;;5027156;28;20391;-64
2021/08/24 03:55:48;;;;;;;;;;;20.50;68.30;;;;;;5027046;28;19910;-66
2021/08/24 03:58:14;;;;;;;;;;;20.50;68.30;;;;;;5026352;28;19974;-66
2021/08/24 04:00:43;;;;;;;;;;;20.50;68.30;;;;;;5026546;28;19916;-66
2021/08/24 04:03:08;;;;;;;;;;;20.50;68.30;;;;;;5020591;28;19940;-64
2021/08/24 04:05:34;;;;;;;;;;;20.50;68.30;;;;;;5026093;28;19913;-65
2021/08/24 04:08:00;;;;;;;;;;;20.50;68.40;;;;;;5012772;28;19944;-64
2021/08/24 04:10:25;;;;;;;;;;;20.50;68.30;;;;;;5029653;28;19967;-65
2021/08/24 04:12:50;;;;;;;;;;;20.50;68.30;;;;;;5011114;28;19931;-60
2021/08/24 04:15:16;;;;;;;;;;;20.50;68.30;;;;;;5034368;28;19918;-65
2021/08/24 04:17:41;;;;;;;;;;;20.50;68.30;;;;;;5002234;28;19913;-64
2021/08/24 04:20:08;;;;;;;;;;;20.50;68.40;;;;;;5038483;28;19917;-59
2021/08/24 04:22:33;;;;;;;;;;;20.50;68.40;;;;;;5025646;28;19920;-57
2021/08/24 04:24:59;;;;;;;;;;;20.50;68.40;;;;;;4983198;28;19913;-63
2021/08/24 04:27:24;;;;;;;;;;;20.40;68.30;;;;;;5035095;28;19963;-63
2021/08/24 04:29:50;;;;;;;;;;;20.40;68.30;;;;;;5023775;28;19919;-67
2021/08/24 04:32:17;;;;;;;;;;;20.40;68.70;;;;;;5029461;28;19983;-65
2021/08/24 04:34:42;;;;;;;;;;;20.40;68.80;;;;;;5024694;28;19913;-66
2021/08/24 04:39:40;;;;;;;;;;;20.40;69.30;;;;;;5020486;28;19929;-55
2021/08/24 04:42:06;;;;;;;;;;;20.40;69.40;;;;;;5023999;28;19923;-58
2021/08/24 04:44:31;;;;;;;;;;;20.40;69.80;;;;;;5038595;28;20009;-57
2021/08/24 04:46:57;;;;;;;;;;;20.40;70.10;;;;;;5013802;28;19919;-57
2021/08/24 04:49:23;;;;;;;;;;;20.40;70.10;;;;;;5028864;28;19924;-58
2021/08/24 04:51:49;;;;;;;;;;;20.40;70.10;;;;;;5005050;28;19951;-52
2021/08/24 04:54:14;;;;;;;;;;;20.40;70.20;;;;;;5030213;28;20594;-59
2021/08/24 04:56:40;;;;;;;;;;;20.40;70.50;;;;;;5029809;28;19913;-57
2021/08/24 04:59:05;;;;;;;;;;;20.40;70.70;;;;;;5044198;28;19917;-57
2021/08/24 05:01:31;;;;;;;;;;;20.40;70.80;;;;;;5034672;28;19913;-55
2021/08/24 05:03:56;;;;;;;;;;;20.30;70.80;;;;;;5030364;28;20333;-56
2021/08/24 05:06:22;;;;;;;;;;;20.40;70.90;;;;;;5046084;28;19916;-55
2021/08/24 05:08:47;;;;;;;;;;;20.40;70.80;;;;;;5051772;28;19913;-58
2021/08/24 05:11:12;;;;;;;;;;;20.40;70.70;;;;;;5043849;28;20211;-59
2021/08/24 05:13:38;;;;;;;;;;;20.40;70.70;;;;;;5034428;28;19963;-57
2021/08/24 05:16:07;;;;;;;;;;;20.40;70.60;;;;;;5038723;28;20004;-56
2021/08/24 05:18:32;;;;;;;;;;;20.40;70.50;;;;;;5039175;28;19917;-54
2021/08/24 05:21:02;;;;;;;;;;;20.40;70.50;;;;;;5042277;28;19920;-57
2021/08/24 05:23:27;;;;;;;;;;;20.40;70.40;;;;;;5026010;28;19917;-59
2021/08/24 05:25:53;;;;;;;;;;;20.40;70.50;;;;;;5035467;28;20710;-55
2021/08/24 05:28:18;;;;;;;;;;;20.40;70.40;;;;;;5043058;28;19953;-57
2021/08/24 05:30:43;;;;;;;;;;;20.40;70.30;;;;;;5034627;28;19921;-59
2021/08/24 05:33:09;;;;;;;;;;;20.50;70.40;;;;;;5028866;28;19921;-56
2021/08/24 05:35:34;;;;;;;;;;;20.50;70.70;;;;;;5023210;28;20297;-58
2021/08/24 05:38:01;;;;;;;;;;;20.50;70.50;;;;;;5030495;28;19921;-59
2021/08/24 05:40:26;;;;;;;;;;;20.40;70.50;;;;;;5048807;28;19995;-56
2021/08/24 05:42:51;;;;;;;;;;;20.40;70.50;;;;;;5036025;28;19947;-59
2021/08/24 05:45:17;;;;;;;;;;;20.50;70.50;;;;;;5053596;28;19947;-57
2021/08/24 05:47:42;;;;;;;;;;;20.50;70.40;;;;;;5046316;28;20258;-57
2021/08/24 05:50:08;;;;;;;;;;;20.40;70.30;;;;;;5064223;28;19947;-59
2021/08/24 05:52:33;;;;;;;;;;;20.40;70.30;;;;;;5037995;28;19916;-62
2021/08/24 05:54:59;;;;;;;;;;;20.50;70.90;;;;;;5045111;28;19940;-56
2021/08/24 05:57:24;;;;;;;;;;;20.40;70.20;;;;;;5049390;28;19917;-54
2021/08/24 05:59:50;;;;;;;;;;;20.40;68.00;;;;;;5064161;28;21412;-55
2021/08/24 06:02:15;;;;;;;;;;;20.40;69.00;;;;;;5046077;28;19916;-53
2021/08/24 06:04:41;;;;;;;;;;;20.40;68.80;;;;;;5055377;28;20397;-55
2021/08/24 06:07:06;;;;;;;;;;;20.40;68.40;;;;;;5044091;28;19916;-56
2021/08/24 06:09:32;;;;;;;;;;;20.50;68.30;;;;;;5043699;28;19913;-57
2021/08/24 06:11:57;;;;;;;;;;;20.40;66.60;;;;;;5044241;28;19917;-56
2021/08/24 06:14:23;;;;;;;;;;;20.30;67.30;;;;;;5053148;28;19916;-54
2021/08/24 06:16:58;;;;;;;;;;;20.40;67.70;;;;;;5047114;28;19963;-57
2021/08/24 06:19:24;;;;;;;;;;;20.20;67.40;;;;;;5038330;28;19948;-54
2021/08/24 06:21:49;;;;;;;;;;;20.30;67.50;;;;;;5044466;28;19912;-55
2021/08/24 06:24:15;;;;;;;;;;;20.20;66.80;;;;;;5043683;28;19925;-56
2021/08/24 06:26:42;;;;;;;;;;;20.30;67.20;;;;;;5043988;28;19913;-55
2021/08/24 06:29:07;;;;;;;;;;;20.30;66.80;;;;;;5040598;28;20010;-56
2021/08/24 06:31:33;;;;;;;;;;;20.40;67.00;;;;;;5044553;28;19964;-56
2021/08/24 06:33:58;;;;;;;;;;;20.30;65.90;;;;;;5043777;28;19913;-57
2021/08/24 06:36:24;;;;;;;;;;;20.30;66.80;;;;;;5043824;28;19944;-56
2021/08/24 06:38:50;;;;;;;;;;;20.30;66.80;;;;;;5038538;28;19935;-53
2021/08/24 06:41:16;;;;;;;;;;;20.30;66.80;;;;;;5044722;28;19920;-56
2021/08/24 06:43:41;;;;;;;;;;;20.30;67.20;;;;;;5043750;28;20390;-58
2021/08/24 06:46:07;;;;;;;;;;;20.30;67.40;;;;;;5044118;28;19959;-56
2021/08/24 06:48:32;;;;;;;;;;;20.30;67.30;;;;;;5042921;28;19913;-54
2021/08/24 06:50:58;;;;;;;;;;;20.30;67.20;;;;;;5043924;28;19913;-57
2021/08/24 06:53:23;;;;;;;;;;;20.30;67.20;;;;;;5043569;28;19916;-57
2021/08/24 06:55:49;;;;;;;;;;;20.30;67.30;;;;;;5042159;28;20406;-57
2021/08/24 06:58:14;;;;;;;;;;;20.30;68.10;;;;;;5040132;28;19916;-53
2021/08/24 07:00:40;;;;;;;;;;;20.30;68.90;;;;;;5041152;28;20030;-60
2021/08/24 07:03:06;;;;;;;;;;;20.30;69.30;;;;;;5043187;28;20370;-58
2021/08/24 07:05:31;;;;;;;;;;;20.30;69.50;;;;;;5042545;28;19966;-56
2021/08/24 07:07:56;;;;;;;;;;;20.30;69.60;;;;;;5042557;28;19991;-56
2021/08/24 07:10:22;;;;;;;;;;;20.30;68.90;;;;;;5043228;28;19919;-57
2021/08/24 07:12:48;;;;;;;;;;;20.30;69.60;;;;;;5041927;28;19917;-55
2021/08/24 07:15:14;;;;;;;;;;;20.30;69.40;;;;;;5041962;28;20317;-54
2021/08/24 07:17:39;;;;;;;;;;;20.30;69.80;;;;;;5040995;28;20290;-52
2021/08/24 07:20:05;;;;;;;;;;;20.30;69.90;;;;;;5042923;28;19923;-56
2021/08/24 07:22:31;;;;;;;;;;;20.30;68.80;;;;;;5040906;28;20263;-58
2021/08/24 07:24:56;;;;;;;;;;;20.30;69.90;;;;;;5042444;28;19920;-57
2021/08/24 07:27:22;;;;;;;;;;;20.30;69.90;;;;;;5043259;28;20349;-55
2021/08/24 07:29:47;;;;;;;;;;;20.30;69.60;;;;;;5042733;28;19913;-54
2021/08/24 07:32:12;;;;;;;;;;;20.30;69.40;;;;;;5042717;28;19917;-56
2021/08/24 07:34:38;;;;;;;;;;;20.30;66.90;;;;;;5042581;28;19970;-56
2021/08/24 07:37:03;;;;;;;;;;;20.20;69.40;;;;;;5042262;28;20047;-55
2021/08/24 07:39:29;;;;;;;;;;;20.30;69.50;;;;;;5040845;28;19982;-55
2021/08/24 07:41:55;;;;;;;;;;;20.30;68.40;;;;;;5043210;28;20285;-55
2021/08/24 07:44:24;;;;;;;;;;;20.30;69.50;;;;;;5042295;28;19967;-56
2021/08/24 07:46:50;;;;;;;;;;;20.20;69.20;;;;;;5042574;28;19945;-54
2021/08/24 07:49:15;;;;;;;;;;;20.30;69.20;;;;;;5042249;28;19967;-54
2021/08/24 07:51:41;;;;;;;;;;;20.30;68.60;;;;;;5042454;28;19913;-54
2021/08/24 07:54:06;;;;;;;;;;;20.30;69.20;;;;;;5042423;28;19913;-56
2021/08/24 07:56:32;;;;;;;;;;;20.30;68.20;;;;;;5042415;28;19917;-55
2021/08/24 07:58:57;;;;;;;;;;;20.10;69.40;;;;;;5039786;28;19912;-56
2021/08/24 08:01:23;;;;;;;;;;;20.20;69.60;;;;;;5043275;28;19916;-55
2021/08/24 08:03:49;;;;;;;;;;;20.20;68.70;;;;;;5041596;28;19924;-58
2021/08/24 08:06:14;;;;;;;;;;;20.30;68.60;;;;;;5041994;28;19920;-54
2021/08/24 08:08:40;;;;;;;;;;;20.20;69.30;;;;;;5039741;28;19912;-58
2021/08/24 08:11:05;;;;;;;;;;;20.30;69.30;;;;;;5041968;28;19921;-58
2021/08/24 08:13:31;;;;;;;;;;;20.30;68.50;;;;;;5040905;28;19913;-57
2021/08/24 08:15:56;;;;;;;;;;;20.20;69.00;;;;;;5042498;28;20381;-60
2021/08/24 08:18:22;;;;;;;;;;;20.20;69.40;;;;;;5040142;28;19920;-57
2021/08/24 08:20:47;;;;;;;;;;;20.20;69.50;;;;;;5042664;28;19913;-56
2021/08/24 08:23:13;;;;;;;;;;;20.20;68.80;;;;;;5041445;28;19917;-56
2021/08/24 08:25:39;;;;;;;;;;;20.20;68.30;;;;;;5042021;28;19917;-56
2021/08/24 08:28:04;;;;;;;;;;;20.20;68.80;;;;;;5041344;28;19913;-57
2021/08/24 08:30:30;;;;;;;;;;;20.20;68.60;;;;;;5040603;28;20626;-57
2021/08/24 08:32:56;;;;;;;;;;;20.20;69.00;;;;;;5042073;28;20360;-52
2021/08/24 08:35:21;;;;;;;;;;;20.20;69.30;;;;;;5040809;28;20343;-55
2021/08/24 08:37:47;;;;;;;;;;;20.20;68.30;;;;;;5039775;28;19996;-58
2021/08/24 08:40:13;;;;;;;;;;;20.00;68.90;;;;;;5041787;28;20293;-56
2021/08/24 08:42:58;;;;;;;;;;;20.10;69.10;;;;;;5040105;28;19913;-57
2021/08/24 08:45:38;;;;;;;;;;;20.10;68.60;;;;;;5040611;28;19916;-56
2021/08/24 08:48:16;;;;;;;;;;;20.10;69.10;;;;;;5051480;28;19959;-55
2021/08/24 08:51:03;;;;;;;;;;;20.10;68.20;;;;;;5044395;28;20370;-55
2021/08/24 08:53:37;;;;;;;;;;;20.20;68.60;;;;;;5033106;28;20000;-54
2021/08/24 08:56:12;;;;;;;;;;;20.20;68.60;;;;;;5054309;28;20000;-58
2021/08/24 08:58:44;;;;;;;;;;;20.20;67.60;;;;;;5048954;28;19917;-57
2021/08/24 09:01:21;;;;;;;;;;;20.20;69.10;;;;;;5041200;28;19923;-58
2021/08/24 09:03:54;;;;;;;;;;;20.20;67.90;;;;;;5049931;28;20351;-54
2021/08/24 09:06:20;;;;;;;;;;;20.20;68.90;;;;;;5040639;28;19927;-58
2021/08/24 09:08:45;;;;;;;;;;;20.20;69.00;;;;;;5043594;28;19920;-55
2021/08/24 09:11:11;;;;;;;;;;;20.10;67.90;;;;;;5043392;28;19913;-54
2021/08/24 09:13:39;;;;;;;;;;;20.10;69.10;;;;;;5045993;28;19913;-54
2021/08/24 09:16:17;;;;;;;;;;;20.10;67.70;;;;;;5049862;28;19999;-55
2021/08/24 09:18:58;;;;;;;;;;;20.10;69.00;;;;;;5053884;28;19913;-55
2021/08/24 09:21:33;;;;;;;;;;;20.10;68.80;;;;;;5055767;28;19943;-55
2021/08/24 09:24:01;;;;;;;;;;;20.10;67.10;;;;;;5060234;28;20013;-56
2021/08/24 09:26:45;;;;;;;;;;;20.10;69.50;;;;;;5059810;28;20407;-61
2021/08/24 09:29:10;;;;;;;;;;;20.10;69.10;;;;;;5044999;28;19913;-56
2021/08/24 09:31:35;;;;;;;;;;;20.10;68.60;;;;;;5047097;28;19965;-58
2021/08/24 09:34:01;;;;;;;;;;;20.10;66.90;;;;;;5064510;28;19919;-54
2021/08/24 09:36:27;;;;;;;;;;;20.10;68.00;;;;;;5046115;28;19921;-56
2021/08/24 09:38:53;;;;;;;;;;;20.10;68.80;;;;;;5064560;28;19926;-57
2021/08/24 09:41:22;;;;;;;;;;;20.10;68.00;;;;;;5046467;28;19916;-54
2021/08/24 09:43:48;;;;;;;;;;;20.00;69.00;;;;;;5023517;28;20082;-57
2021/08/24 09:46:16;;;;;;;;;;;20.10;68.90;;;;;;5045003;28;20370;-52
2021/08/24 09:48:52;;;;;;;;;;;20.10;68.00;;;;;;5043361;28;19927;-56
2021/08/24 09:51:37;;;;;;;;;;;20.00;68.90;;;;;;5018822;28;19975;-54
2021/08/24 09:54:03;;;;;;;;;;;20.10;68.50;;;;;;5062926;28;19912;-58
2021/08/24 09:56:31;;;;;;;;;;;20.10;68.60;;;;;;5064983;28;19913;-56
2021/08/24 09:58:56;;;;;;;;;;;20.00;68.20;;;;;;5046370;28;19912;-64
2021/08/24 10:01:22;;;;;;;;;;;20.00;68.90;;;;;;5045987;28;19912;-55
2021/08/24 10:03:48;;;;;;;;;;;20.10;68.10;;;;;;5045656;28;19928;-56
2021/08/24 10:06:37;;;;;;;;;;;20.00;68.50;;;;;;5034527;28;19913;-55
2021/08/24 10:09:14;;;;;;;;;;;20.00;67.60;;;;;;5041478;28;19944;-56
2021/08/24 10:11:40;;;;;;;;;;;19.90;68.60;;;;;;5056746;28;20139;-57
2021/08/24 10:14:25;;;;;;;;;;;19.90;68.80;;;;;;5026529;28;19921;-56
2021/08/24 10:16:51;;;;;;;;;;;20.00;67.50;;;;;;5037343;28;19913;-54
2021/08/24 10:19:24;;;;;;;;;;;20.00;68.00;;;;;;5032555;28;19943;-55
2021/08/24 10:21:57;;;;;;;;;;;20.00;68.40;;;;;;5025276;28;19920;-56
2021/08/24 10:24:41;;;;;;;;;;;19.90;68.40;;;;;;5030189;28;19923;-54
2021/08/24 10:27:17;;;;;;;;;;;19.90;68.30;;;;;;5044091;28;21175;-57
2021/08/24 10:29:43;;;;;;;;;;;19.90;68.00;;;;;;5029910;28;19952;-54
2021/08/24 10:32:09;;;;;;;;;;;19.90;68.40;;;;;;5043954;28;19947;-56
2021/08/24 10:34:34;;;;;;;;;;;19.80;67.50;;;;;;5024990;28;19944;-55
2021/08/24 10:40:08;;;;;;;;;;;19.90;67.60;;;;;;5027207;28;20601;-59
2021/08/24 10:42:34;;;;;;;;;;;19.90;68.40;;;;;;5035684;28;20003;-60
2021/08/24 10:45:01;;;;;;;;;;;20.00;67.70;;;;;;5038957;28;19909;-59
2021/08/24 10:47:28;;;;;;;;;;;19.90;67.30;;;;;;5043054;28;19920;-59
2021/08/24 10:49:54;;;;;;;;;;;19.80;68.40;;;;;;5034963;28;19919;-59
2021/08/24 10:52:38;;;;;;;;;;;19.70;68.30;;;;;;5029363;28;19909;-56
2021/08/24 10:55:05;;;;;;;;;;;19.80;68.60;;;;;;5045836;28;19909;-59
2021/08/24 10:57:31;;;;;;;;;;;19.90;67.80;;;;;;5046547;28;19955;-59
2021/08/24 10:59:59;;;;;;;;;;;19.80;68.00;;;;;;5037797;28;19917;-59
2021/08/24 11:02:28;;;;;;;;;;;19.80;68.60;;;;;;5034762;28;19963;-57
2021/08/24 11:04:57;;;;;;;;;;;19.90;67.40;;;;;;5042723;28;19920;-60
2021/08/24 11:07:38;;;;;;;;;;;19.70;68.00;;;;;;5034029;28;19909;-59
2021/08/24 11:10:10;;;;;;;;;;;19.70;68.50;;;;;;5021221;28;19909;-59
2021/08/24 11:12:45;;;;;;;;;;;19.80;68.60;;;;;;5035011;28;19917;-60
2021/08/24 11:15:25;;;;;;;;;;;19.90;68.50;;;;;;5027879;28;19916;-58
2021/08/24 11:17:55;;;;;;;;;;;19.80;67.90;;;;;;5040950;28;19927;-59
2021/08/24 11:20:37;;;;;;;;;;;19.80;68.40;;;;;;5040158;28;19916;-58
2021/08/24 11:23:21;;;;;;;;;;;19.80;68.20;;;;;;5039494;28;19924;-58
2021/08/24 11:25:48;;;;;;;;;;;19.80;68.00;;;;;;5038293;28;19913;-59
2021/08/24 11:28:16;;;;;;;;;;;19.90;68.60;;;;;;5037629;28;20374;-55
2021/08/24 11:30:43;;;;;;;;;;;19.80;67.80;;;;;;5041817;28;20485;-59
2021/08/24 11:33:13;;;;;;;;;;;19.80;68.80;;;;;;5033062;28;19909;-57
2021/08/24 11:35:45;;;;;;;;;;;19.90;68.00;;;;;;5030212;28;19909;-59
2021/08/24 11:38:11;;;;;;;;;;;19.80;68.70;;;;;;5033741;28;19917;-57
2021/08/24 11:40:43;;;;;;;;;;;19.80;68.40;;;;;;5033226;28;20406;-59
2021/08/24 11:43:11;;;;;;;;;;;19.70;67.90;;;;;;5038433;28;19920;-59
2021/08/24 11:45:44;;;;;;;;;;;19.80;69.00;;;;;;5024526;28;19959;-57
2021/08/24 11:48:13;;;;;;;;;;;19.70;68.40;;;;;;5033206;28;19909;-59
2021/08/24 11:50:46;;;;;;;;;;;19.60;68.30;;;;;;5030242;28;19991;-59
2021/08/24 11:53:26;;;;;;;;;;;19.60;68.30;;;;;;5043970;28;19909;-59
2021/08/24 11:55:56;;;;;;;;;;;19.70;68.80;;;;;;5043814;28;19913;-59
2021/08/24 11:58:22;;;;;;;;;;;19.70;67.70;;;;;;5043488;28;20325;-58
2021/08/24 12:00:52;;;;;;;;;;;19.70;68.70;;;;;;5037438;28;19912;-59
2021/08/24 12:03:21;;;;;;;;;;;19.80;68.50;;;;;;5037721;28;19921;-59
2021/08/24 12:05:58;;;;;;;;;;;19.80;68.90;;;;;;5035329;28;20474;-59
2021/08/24 12:08:25;;;;;;;;;;;19.80;69.00;;;;;;5041891;28;19913;-58
2021/08/24 12:10:51;;;;;;;;;;;19.80;68.50;;;;;;5037000;28;19916;-60
2021/08/24 12:13:35;;;;;;;;;;;19.80;68.70;;;;;;5036870;28;19909;-58
2021/08/24 12:16:19;;;;;;;;;;;19.80;68.00;;;;;;5031663;28;20569;-57
2021/08/24 12:18:44;;;;;;;;;;;19.70;69.20;;;;;;5024789;28;19909;-56
2021/08/24 12:21:27;;;;;;;;;;;19.80;68.90;;;;;;5031059;28;20381;-57
2021/08/24 12:23:53;;;;;;;;;;;19.70;67.20;;;;;;5024793;28;20646;-58
2021/08/24 12:26:32;;;;;;;;;;;19.60;68.40;;;;;;5037341;28;19916;-58
2021/08/24 12:29:01;;;;;;;;;;;19.70;67.80;;;;;;5027756;28;19924;-57
2021/08/24 12:31:29;;;;;;;;;;;19.70;68.90;;;;;;5038643;28;20442;-58
2021/08/24 12:33:55;;;;;;;;;;;19.80;68.90;;;;;;5044851;28;20020;-57
2021/08/24 12:36:23;;;;;;;;;;;19.70;67.90;;;;;;5037626;28;19913;-59
2021/08/24 12:38:49;;;;;;;;;;;19.70;68.60;;;;;;5023665;28;19931;-58
2021/08/24 12:41:33;;;;;;;;;;;19.70;67.60;;;;;;5040767;28;20004;-57
2021/08/24 12:44:14;;;;;;;;;;;19.70;69.00;;;;;;5035874;28;19919;-59
2021/08/24 12:46:42;;;;;;;;;;;19.70;68.40;;;;;;5035588;28;20437;-58
2021/08/24 12:49:17;;;;;;;;;;;19.80;68.90;;;;;;5039890;28;19913;-58
2021/08/24 12:51:52;;;;;;;;;;;19.70;68.60;;;;;;5036395;28;19979;-59
2021/08/24 12:54:21;;;;;;;;;;;19.70;68.60;;;;;;5024995;28;19936;-59
2021/08/24 12:56:47;;;;;;;;;;;19.70;69.60;;;;;;5024492;28;19914;-58
2021/08/24 12:59:29;;;;;;;;;;;19.70;67.80;;;;;;5022931;28;19909;-59
2021/08/24 13:02:14;;;;;;;;;;;19.70;69.10;;;;;;5033292;28;20007;-58
2021/08/24 13:04:44;;;;;;;;;;;19.70;68.90;;;;;;5042769;28;20019;-56
2021/08/24 13:07:14;;;;;;;;;;;19.70;68.30;;;;;;5046104;28;19932;-59
2021/08/24 13:09:40;;;;;;;;;;;19.70;69.10;;;;;;5041057;28;19909;-57
2021/08/24 13:12:05;;;;;;;;;;;19.70;68.90;;;;;;5047645;28;19908;-59
2021/08/24 13:14:43;;;;;;;;;;;19.70;69.00;;;;;;5033396;28;19913;-57
2021/08/24 13:17:09;;;;;;;;;;;19.70;68.40;;;;;;5037170;28;19913;-58
2021/08/24 13:19:34;;;;;;;;;;;19.70;69.10;;;;;;5037859;28;19916;-59
2021/08/24 13:22:01;;;;;;;;;;;19.70;69.20;;;;;;5039812;28;19915;-58
2021/08/24 13:24:28;;;;;;;;;;;19.70;67.30;;;;;;5046920;28;19917;-60
2021/08/24 13:26:54;;;;;;;;;;;19.70;68.90;;;;;;5041528;28;20388;-57
2021/08/24 13:29:23;;;;;;;;;;;19.70;68.70;;;;;;5027723;28;19984;-58
2021/08/24 13:31:54;;;;;;;;;;;19.70;69.40;;;;;;5026496;28;19924;-59
2021/08/24 13:34:24;;;;;;;;;;;19.60;67.80;;;;;;5035367;28;20362;-59
2021/08/24 13:36:50;;;;;;;;;;;19.60;68.90;;;;;;5026645;28;20393;-55
2021/08/24 13:39:15;;;;;;;;;;;19.70;68.80;;;;;;5026108;28;19921;-58
2021/08/24 13:41:42;;;;;;;;;;;19.70;67.90;;;;;;5027604;28;20058;-59
2021/08/24 13:44:34;;;;;;;;;;;19.70;68.90;;;;;;5043477;28;20418;-59
2021/08/24 13:47:00;;;;;;;;;;;19.70;68.90;;;;;;5032511;28;19935;-59
2021/08/24 13:49:26;;;;;;;;;;;19.60;68.40;;;;;;5028553;28;19961;-58
2021/08/24 13:51:55;;;;;;;;;;;19.60;68.80;;;;;;5033717;28;20329;-58
2021/08/24 13:54:24;;;;;;;;;;;19.70;69.50;;;;;;5032085;28;20374;-57
2021/08/24 13:56:50;;;;;;;;;;;19.70;68.80;;;;;;5042599;28;19913;-59
2021/08/24 13:59:23;;;;;;;;;;;19.70;69.00;;;;;;5043800;28;20294;-58
2021/08/24 14:01:48;;;;;;;;;;;19.70;69.80;;;;;;5026146;28;19917;-59
2021/08/24 14:04:18;;;;;;;;;;;19.70;69.70;;;;;;5027290;28;19944;-58
2021/08/24 14:06:51;;;;;;;;;;;19.70;68.50;;;;;;5026323;28;19909;-59
2021/08/24 14:09:20;;;;;;;;;;;19.60;68.50;;;;;;5039065;28;19916;-59
2021/08/24 14:11:50;;;;;;;;;;;19.60;68.10;;;;;;5034143;28;19917;-58
2021/08/24 14:14:33;;;;;;;;;;;19.60;69.60;;;;;;5028380;28;20156;-59
2021/08/24 14:17:01;;;;;;;;;;;19.60;69.40;;;;;;5039490;28;19920;-58
2021/08/24 14:19:29;;;;;;;;;;;19.70;69.70;;;;;;5034034;28;19959;-59
2021/08/24 14:22:00;;;;;;;;;;;19.70;65.90;;;;;;5038505;28;20385;-58
2021/08/24 14:24:25;;;;;;;;;;;19.60;69.10;;;;;;5035636;28;19913;-59
2021/08/24 14:26:51;;;;;;;;;;;19.60;69.80;;;;;;5038906;28;19910;-58
2021/08/24 14:29:21;;;;;;;;;;;19.60;69.40;;;;;;5025472;28;19909;-53